EXS14M EGJJ-EGNM
Flight info
| Callsign | EXS14M |
|---|---|
| Flight time | 0h 52m |
| Altitude | 37000 |
| Route | ORIST Y110 VEXEN L980 MID UM185 OCK Q3 HEMEL/N0429F360 T420 TNT N57 DENBY DCT LBA |
| Aircraft | B738/M-VGDW/C |
Departure
| Time | 2026-05-05 19:31 |
|---|---|
| Airport | Jersey Airport (EGJJ) |
Arrival
| Time | 2026-05-05 20:24 |
|---|---|
| Airport | Leeds Bradford Airport (EGNM) |
| Time | Latitude | Longitude | Altitude | Speed | Heading |
|---|---|---|---|---|---|
| 2026-05-05 18:42 | 49.20552 | -2.19746 | 273 ft | 0 kts | 174° |
| 2026-05-05 19:19 | 49.20566 | -2.19749 | 273 ft | 2 kts | 174° |
| 2026-05-05 19:20 | 49.20578 | -2.19751 | 273 ft | 0 kts | 174° |
| 2026-05-05 19:20 | 49.20590 | -2.19754 | 273 ft | 2 kts | 152° |
| 2026-05-05 19:20 | 49.20602 | -2.19769 | 273 ft | 2 kts | 124° |
| 2026-05-05 19:20 | 49.20607 | -2.19790 | 273 ft | 2 kts | 97° |
| 2026-05-05 19:21 | 49.20608 | -2.19802 | 272 ft | 1 kts | 81° |
| 2026-05-05 19:21 | 49.20607 | -2.19810 | 272 ft | 0 kts | 84° |
| 2026-05-05 19:21 | 49.20607 | -2.19809 | 272 ft | 0 kts | 84° |
| 2026-05-05 19:23 | 49.20607 | -2.19808 | 272 ft | 1 kts | 84° |
| 2026-05-05 19:23 | 49.20609 | -2.19779 | 273 ft | 3 kts | 84° |
| 2026-05-05 19:23 | 49.20612 | -2.19733 | 274 ft | 4 kts | 85° |
| 2026-05-05 19:23 | 49.20622 | -2.19683 | 275 ft | 5 kts | 51° |
| 2026-05-05 19:24 | 49.20654 | -2.19650 | 276 ft | 6 kts | 36° |
| 2026-05-05 19:24 | 49.20686 | -2.19599 | 276 ft | 7 kts | 61° |
| 2026-05-05 19:24 | 49.20698 | -2.19523 | 278 ft | 7 kts | 82° |
| 2026-05-05 19:24 | 49.20706 | -2.19443 | 280 ft | 7 kts | 82° |
| 2026-05-05 19:25 | 49.20705 | -2.19358 | 281 ft | 8 kts | 102° |
| 2026-05-05 19:25 | 49.20687 | -2.19259 | 281 ft | 10 kts | 105° |
| 2026-05-05 19:25 | 49.20678 | -2.19127 | 279 ft | 14 kts | 84° |
| 2026-05-05 19:25 | 49.20692 | -2.18974 | 273 ft | 13 kts | 82° |
| 2026-05-05 19:26 | 49.20704 | -2.18833 | 267 ft | 12 kts | 83° |
| 2026-05-05 19:26 | 49.20713 | -2.18717 | 266 ft | 8 kts | 83° |
| 2026-05-05 19:26 | 49.20722 | -2.18610 | 266 ft | 10 kts | 83° |
| 2026-05-05 19:26 | 49.20731 | -2.18503 | 268 ft | 8 kts | 83° |
| 2026-05-05 19:27 | 49.20737 | -2.18427 | 270 ft | 7 kts | 83° |
| 2026-05-05 19:27 | 49.20743 | -2.18365 | 272 ft | 5 kts | 75° |
| 2026-05-05 19:27 | 49.20766 | -2.18326 | 273 ft | 3 kts | 20° |
| 2026-05-05 19:27 | 49.20776 | -2.18323 | 274 ft | 0 kts | 7° |
| 2026-05-05 19:29 | 49.20795 | -2.18322 | 274 ft | 7 kts | 356° |
| 2026-05-05 19:29 | 49.20863 | -2.18371 | 274 ft | 10 kts | 325° |
| 2026-05-05 19:29 | 49.20889 | -2.18425 | 274 ft | 4 kts | 268° |
| 2026-05-05 19:30 | 49.20888 | -2.18436 | 273 ft | 0 kts | 263° |
| 2026-05-05 19:30 | 49.20878 | -2.18555 | 271 ft | 47 kts | 263° |
| 2026-05-05 19:31 | 49.20800 | -2.19500 | 279 ft | 127 kts | 262° |
| 2026-05-05 19:31 | 49.20654 | -2.21147 | 565 ft | 171 kts | 265° |
| 2026-05-05 19:31 | 49.20496 | -2.22899 | 1546 ft | 173 kts | 266° |
| 2026-05-05 19:31 | 49.20347 | -2.24772 | 2330 ft | 190 kts | 267° |
| 2026-05-05 19:32 | 49.20176 | -2.26959 | 2831 ft | 226 kts | 267° |
| 2026-05-05 19:32 | 49.20145 | -2.29561 | 3337 ft | 258 kts | 286° |
| 2026-05-05 19:32 | 49.20902 | -2.31897 | 4779 ft | 249 kts | 311° |
| 2026-05-05 19:32 | 49.22272 | -2.33449 | 5108 ft | 247 kts | 341° |
| 2026-05-05 19:33 | 49.23948 | -2.33648 | 4986 ft | 233 kts | 7° |
| 2026-05-05 19:33 | 49.25447 | -2.33069 | 4993 ft | 216 kts | 13° |
| 2026-05-05 19:33 | 49.26902 | -2.32411 | 5006 ft | 223 kts | 11° |
| 2026-05-05 19:33 | 49.28521 | -2.31854 | 5008 ft | 251 kts | 8° |
| 2026-05-05 19:34 | 49.30307 | -2.31343 | 5710 ft | 267 kts | 7° |
| 2026-05-05 19:34 | 49.32101 | -2.30844 | 6843 ft | 266 kts | 6° |
| 2026-05-05 19:34 | 49.33934 | -2.30336 | 7753 ft | 273 kts | 6° |
| 2026-05-05 19:35 | 49.37704 | -2.29290 | 9524 ft | 284 kts | 5° |
| 2026-05-05 19:35 | 49.39679 | -2.28744 | 10299 ft | 292 kts | 5° |
| 2026-05-05 19:35 | 49.41680 | -2.28186 | 11164 ft | 296 kts | 4° |
| 2026-05-05 19:35 | 49.43739 | -2.27613 | 11892 ft | 304 kts | 4° |
| 2026-05-05 19:36 | 49.45813 | -2.27033 | 12678 ft | 308 kts | 4° |
| 2026-05-05 19:36 | 49.47919 | -2.26444 | 13440 ft | 312 kts | 4° |
| 2026-05-05 19:36 | 49.50066 | -2.25842 | 14181 ft | 317 kts | 3° |
| 2026-05-05 19:36 | 49.52246 | -2.25231 | 14900 ft | 321 kts | 3° |
| 2026-05-05 19:37 | 49.54434 | -2.24617 | 15592 ft | 325 kts | 2° |
| 2026-05-05 19:37 | 49.56654 | -2.23994 | 16262 ft | 329 kts | 2° |
| 2026-05-05 19:37 | 49.58919 | -2.23358 | 16918 ft | 333 kts | 2° |
| 2026-05-05 19:37 | 49.61188 | -2.22719 | 17548 ft | 337 kts | 1° |
| 2026-05-05 19:38 | 49.63528 | -2.22060 | 18171 ft | 340 kts | 1° |
| 2026-05-05 19:38 | 49.65873 | -2.21400 | 18771 ft | 344 kts | 1° |
| 2026-05-05 19:38 | 49.68229 | -2.20639 | 19343 ft | 352 kts | 6° |
| 2026-05-05 19:38 | 49.70610 | -2.19364 | 19899 ft | 365 kts | 16° |
| 2026-05-05 19:39 | 49.72886 | -2.17401 | 20156 ft | 389 kts | 27° |
| 2026-05-05 19:39 | 49.75119 | -2.14880 | 20220 ft | 411 kts | 31° |
| 2026-05-05 19:39 | 49.77428 | -2.12107 | 20448 ft | 425 kts | 32° |
| 2026-05-05 19:39 | 49.79774 | -2.09253 | 20921 ft | 431 kts | 32° |
| 2026-05-05 19:40 | 49.82133 | -2.06378 | 21428 ft | 436 kts | 32° |
| 2026-05-05 19:40 | 49.84550 | -2.03430 | 21933 ft | 440 kts | 32° |
| 2026-05-05 19:40 | 49.86957 | -2.00491 | 22423 ft | 444 kts | 31° |
| 2026-05-05 19:40 | 49.89383 | -1.97526 | 22895 ft | 449 kts | 31° |
| 2026-05-05 19:41 | 49.91826 | -1.94538 | 23356 ft | 453 kts | 31° |
| 2026-05-05 19:41 | 49.94308 | -1.91501 | 23807 ft | 457 kts | 31° |
| 2026-05-05 19:41 | 49.96894 | -1.88679 | 24238 ft | 455 kts | 24° |
| 2026-05-05 19:41 | 49.99676 | -1.86281 | 24679 ft | 451 kts | 16° |
| 2026-05-05 19:42 | 50.02554 | -1.84722 | 25066 ft | 438 kts | 1° |
| 2026-05-05 19:42 | 50.05539 | -1.84003 | 25566 ft | 431 kts | 355° |
| 2026-05-05 19:42 | 50.08532 | -1.83452 | 25907 ft | 441 kts | 359° |
| 2026-05-05 19:42 | 50.11583 | -1.82316 | 26324 ft | 455 kts | 8° |
| 2026-05-05 19:43 | 50.14563 | -1.80509 | 26705 ft | 469 kts | 17° |
| 2026-05-05 19:43 | 50.17382 | -1.77798 | 27056 ft | 482 kts | 25° |
| 2026-05-05 19:43 | 50.20283 | -1.75456 | 27359 ft | 468 kts | 8° |
| 2026-05-05 19:43 | 50.23394 | -1.74206 | 27781 ft | 457 kts | 0° |
| 2026-05-05 19:44 | 50.26505 | -1.73243 | 28091 ft | 461 kts | 0° |
| 2026-05-05 19:44 | 50.29679 | -1.72198 | 28424 ft | 466 kts | 1° |
| 2026-05-05 19:44 | 50.32865 | -1.71057 | 28782 ft | 469 kts | 2° |
| 2026-05-05 19:44 | 50.36044 | -1.69851 | 29098 ft | 473 kts | 3° |
| 2026-05-05 19:45 | 50.39217 | -1.68597 | 29415 ft | 477 kts | 3° |
| 2026-05-05 19:45 | 50.42452 | -1.67280 | 29722 ft | 480 kts | 4° |
| 2026-05-05 19:45 | 50.45660 | -1.65947 | 30019 ft | 483 kts | 4° |
| 2026-05-05 19:45 | 50.48924 | -1.64571 | 30360 ft | 485 kts | 4° |
| 2026-05-05 19:46 | 50.52177 | -1.63185 | 30729 ft | 485 kts | 4° |
| 2026-05-05 19:46 | 50.55420 | -1.61793 | 31093 ft | 485 kts | 4° |
| 2026-05-05 19:46 | 50.58662 | -1.60394 | 31451 ft | 485 kts | 4° |
| 2026-05-05 19:46 | 50.61903 | -1.58989 | 31798 ft | 485 kts | 4° |
| 2026-05-05 19:47 | 50.65139 | -1.57582 | 32135 ft | 485 kts | 3° |
| 2026-05-05 19:47 | 50.68397 | -1.56161 | 32463 ft | 485 kts | 3° |
| 2026-05-05 19:47 | 50.71637 | -1.54744 | 32783 ft | 485 kts | 3° |
| 2026-05-05 19:47 | 50.74922 | -1.53304 | 33095 ft | 485 kts | 3° |
| 2026-05-05 19:48 | 50.78133 | -1.51894 | 33391 ft | 486 kts | 3° |
| 2026-05-05 19:48 | 50.81381 | -1.50465 | 33683 ft | 486 kts | 3° |
| 2026-05-05 19:48 | 50.84653 | -1.49023 | 33968 ft | 486 kts | 2° |
| 2026-05-05 19:48 | 50.87917 | -1.47582 | 34261 ft | 485 kts | 2° |
| 2026-05-05 19:49 | 50.91116 | -1.46167 | 34510 ft | 486 kts | 2° |
| 2026-05-05 19:49 | 50.93286 | -1.45207 | 34657 ft | 486 kts | 2° |
| 2026-05-05 19:49 | 50.97647 | -1.43274 | 34960 ft | 487 kts | 2° |
| 2026-05-05 19:49 | 51.00869 | -1.41843 | 35172 ft | 488 kts | 2° |
| 2026-05-05 19:50 | 51.04190 | -1.40366 | 35380 ft | 489 kts | 2° |
| 2026-05-05 19:50 | 51.07457 | -1.38910 | 35618 ft | 489 kts | 2° |
| 2026-05-05 19:50 | 51.10673 | -1.37474 | 35859 ft | 489 kts | 2° |
| 2026-05-05 19:50 | 51.13952 | -1.36007 | 36083 ft | 488 kts | 2° |
| 2026-05-05 19:51 | 51.17184 | -1.34560 | 36276 ft | 488 kts | 3° |
| 2026-05-05 19:51 | 51.20453 | -1.33102 | 36420 ft | 489 kts | 3° |
| 2026-05-05 19:51 | 51.23756 | -1.31628 | 36573 ft | 489 kts | 3° |
| 2026-05-05 19:51 | 51.27000 | -1.30176 | 36723 ft | 489 kts | 3° |
| 2026-05-05 19:52 | 51.30297 | -1.28697 | 36873 ft | 489 kts | 3° |
| 2026-05-05 19:52 | 51.36858 | -1.25745 | 36963 ft | 491 kts | 3° |
| 2026-05-05 19:53 | 51.43391 | -1.22788 | 36966 ft | 488 kts | 3° |
| 2026-05-05 19:53 | 51.49891 | -1.19839 | 36966 ft | 488 kts | 3° |
| 2026-05-05 19:54 | 51.56422 | -1.16867 | 36966 ft | 488 kts | 3° |
| 2026-05-05 19:54 | 51.62957 | -1.13883 | 36966 ft | 487 kts | 3° |
| 2026-05-05 19:55 | 51.69460 | -1.10905 | 36966 ft | 486 kts | 2° |
| 2026-05-05 19:55 | 51.75974 | -1.07913 | 36966 ft | 485 kts | 2° |
| 2026-05-05 19:56 | 51.82447 | -1.04930 | 36966 ft | 485 kts | 2° |
| 2026-05-05 19:56 | 51.88869 | -1.01963 | 36966 ft | 484 kts | 2° |
| 2026-05-05 19:57 | 51.95359 | -0.98955 | 36966 ft | 483 kts | 2° |
| 2026-05-05 19:57 | 52.01798 | -0.95962 | 36966 ft | 482 kts | 1° |
| 2026-05-05 19:58 | 52.08203 | -0.92976 | 36966 ft | 482 kts | 1° |
| 2026-05-05 19:58 | 52.14632 | -0.90229 | 36964 ft | 469 kts | 354° |
| 2026-05-05 19:58 | 52.17853 | -0.89535 | 36966 ft | 455 kts | 347° |
| 2026-05-05 19:59 | 52.20934 | -0.89587 | 36971 ft | 433 kts | 337° |
| 2026-05-05 19:59 | 52.23828 | -0.90456 | 36978 ft | 413 kts | 327° |
| 2026-05-05 19:59 | 52.26382 | -0.92045 | 36704 ft | 380 kts | 315° |
| 2026-05-05 19:59 | 52.28552 | -0.94261 | 36151 ft | 356 kts | 308° |
| 2026-05-05 20:00 | 52.30470 | -0.96705 | 35645 ft | 355 kts | 304° |
| 2026-05-05 20:00 | 52.32334 | -0.99384 | 35077 ft | 356 kts | 302° |
| 2026-05-05 20:00 | 52.34105 | -1.02068 | 34527 ft | 349 kts | 302° |
| 2026-05-05 20:00 | 52.35882 | -1.04859 | 33985 ft | 358 kts | 301° |
| 2026-05-05 20:01 | 52.37654 | -1.07727 | 33402 ft | 358 kts | 301° |
| 2026-05-05 20:01 | 52.39409 | -1.10611 | 32842 ft | 359 kts | 301° |
| 2026-05-05 20:01 | 52.41149 | -1.13545 | 32254 ft | 368 kts | 301° |
| 2026-05-05 20:01 | 52.42914 | -1.16531 | 31731 ft | 359 kts | 301° |
| 2026-05-05 20:02 | 52.44616 | -1.19414 | 31346 ft | 354 kts | 301° |
| 2026-05-05 20:02 | 52.46343 | -1.22394 | 30881 ft | 365 kts | 301° |
| 2026-05-05 20:02 | 52.48048 | -1.25333 | 30409 ft | 358 kts | 301° |
| 2026-05-05 20:02 | 52.49771 | -1.28288 | 29952 ft | 347 kts | 301° |
| 2026-05-05 20:03 | 52.51442 | -1.31161 | 29511 ft | 358 kts | 302° |
| 2026-05-05 20:03 | 52.53312 | -1.33929 | 29013 ft | 365 kts | 309° |
| 2026-05-05 20:03 | 52.55421 | -1.36193 | 28532 ft | 370 kts | 319° |
| 2026-05-05 20:03 | 52.57819 | -1.37965 | 28071 ft | 384 kts | 325° |
| 2026-05-05 20:04 | 52.60335 | -1.39549 | 27552 ft | 387 kts | 327° |
| 2026-05-05 20:04 | 52.62825 | -1.41036 | 27051 ft | 377 kts | 327° |
| 2026-05-05 20:04 | 52.65261 | -1.42487 | 26577 ft | 375 kts | 327° |
| 2026-05-05 20:04 | 52.67695 | -1.43961 | 26092 ft | 379 kts | 327° |
| 2026-05-05 20:05 | 52.70144 | -1.45432 | 25588 ft | 369 kts | 327° |
| 2026-05-05 20:05 | 52.72538 | -1.46871 | 25113 ft | 366 kts | 327° |
| 2026-05-05 20:05 | 52.74916 | -1.48324 | 24641 ft | 370 kts | 328° |
| 2026-05-05 20:05 | 52.77290 | -1.49762 | 24144 ft | 361 kts | 328° |
| 2026-05-05 20:06 | 52.79615 | -1.51168 | 23680 ft | 357 kts | 328° |
| 2026-05-05 20:06 | 52.81991 | -1.52627 | 23204 ft | 362 kts | 328° |
| 2026-05-05 20:06 | 52.84320 | -1.54044 | 22712 ft | 353 kts | 328° |
| 2026-05-05 20:06 | 52.86570 | -1.55412 | 22260 ft | 351 kts | 328° |
| 2026-05-05 20:07 | 52.88882 | -1.56838 | 21795 ft | 355 kts | 329° |
| 2026-05-05 20:07 | 52.91162 | -1.58229 | 21306 ft | 345 kts | 329° |
| 2026-05-05 20:07 | 52.93398 | -1.59596 | 20858 ft | 345 kts | 329° |
| 2026-05-05 20:07 | 52.95661 | -1.60995 | 20390 ft | 346 kts | 329° |
| 2026-05-05 20:08 | 52.97904 | -1.62369 | 19757 ft | 342 kts | 329° |
| 2026-05-05 20:08 | 53.00117 | -1.63729 | 19105 ft | 338 kts | 330° |
| 2026-05-05 20:08 | 53.02291 | -1.65069 | 18624 ft | 340 kts | 329° |
| 2026-05-05 20:08 | 53.04501 | -1.66441 | 18159 ft | 340 kts | 329° |
| 2026-05-05 20:09 | 53.06691 | -1.67787 | 17683 ft | 333 kts | 330° |
| 2026-05-05 20:09 | 53.08881 | -1.69148 | 17243 ft | 342 kts | 330° |
| 2026-05-05 20:09 | 53.11106 | -1.70525 | 16751 ft | 336 kts | 330° |
| 2026-05-05 20:09 | 53.13283 | -1.71869 | 16302 ft | 336 kts | 330° |
| 2026-05-05 20:10 | 53.15464 | -1.73227 | 15843 ft | 337 kts | 331° |
| 2026-05-05 20:10 | 53.17623 | -1.74562 | 15376 ft | 328 kts | 331° |
| 2026-05-05 20:10 | 53.19778 | -1.75902 | 15006 ft | 333 kts | 331° |
| 2026-05-05 20:10 | 53.21943 | -1.77253 | 14527 ft | 329 kts | 332° |
| 2026-05-05 20:11 | 53.24052 | -1.78561 | 14073 ft | 321 kts | 332° |
| 2026-05-05 20:11 | 53.26152 | -1.79875 | 13654 ft | 327 kts | 332° |
| 2026-05-05 20:11 | 53.28276 | -1.81201 | 13175 ft | 321 kts | 332° |
| 2026-05-05 20:11 | 53.30329 | -1.82480 | 12725 ft | 316 kts | 332° |
| 2026-05-05 20:12 | 53.32394 | -1.83777 | 12281 ft | 319 kts | 333° |
| 2026-05-05 20:12 | 53.34457 | -1.85066 | 11814 ft | 311 kts | 333° |
| 2026-05-05 20:12 | 53.36465 | -1.86321 | 11385 ft | 305 kts | 333° |
| 2026-05-05 20:12 | 53.38445 | -1.87566 | 10950 ft | 304 kts | 333° |
| 2026-05-05 20:13 | 53.40405 | -1.88795 | 10507 ft | 295 kts | 333° |
| 2026-05-05 20:13 | 53.42278 | -1.89980 | 10163 ft | 288 kts | 333° |
| 2026-05-05 20:13 | 53.44236 | -1.91298 | 10139 ft | 309 kts | 333° |
| 2026-05-05 20:13 | 53.46184 | -1.92576 | 10014 ft | 293 kts | 334° |
| 2026-05-05 20:14 | 53.48063 | -1.93722 | 9651 ft | 283 kts | 334° |
| 2026-05-05 20:14 | 53.49941 | -1.94601 | 9214 ft | 280 kts | 348° |
| 2026-05-05 20:14 | 53.51868 | -1.94406 | 8863 ft | 280 kts | 11° |
| 2026-05-05 20:14 | 53.53553 | -1.92845 | 8528 ft | 281 kts | 36° |
| 2026-05-05 20:15 | 53.54878 | -1.90492 | 8195 ft | 276 kts | 46° |
| 2026-05-05 20:15 | 53.56052 | -1.87969 | 7859 ft | 272 kts | 47° |
| 2026-05-05 20:15 | 53.57214 | -1.85443 | 7539 ft | 273 kts | 47° |
| 2026-05-05 20:15 | 53.58373 | -1.82968 | 7199 ft | 265 kts | 46° |
| 2026-05-05 20:16 | 53.59525 | -1.80544 | 6898 ft | 268 kts | 46° |
| 2026-05-05 20:16 | 53.60681 | -1.78125 | 6560 ft | 261 kts | 46° |
| 2026-05-05 20:16 | 53.61816 | -1.75753 | 6254 ft | 259 kts | 46° |
| 2026-05-05 20:16 | 53.62941 | -1.73407 | 5921 ft | 258 kts | 46° |
| 2026-05-05 20:17 | 53.64053 | -1.71081 | 5570 ft | 251 kts | 46° |
| 2026-05-05 20:17 | 53.65154 | -1.68779 | 5275 ft | 253 kts | 46° |
| 2026-05-05 20:17 | 53.66240 | -1.66507 | 4949 ft | 245 kts | 46° |
| 2026-05-05 20:17 | 53.67286 | -1.64312 | 4662 ft | 236 kts | 46° |
| 2026-05-05 20:18 | 53.68291 | -1.62203 | 4385 ft | 227 kts | 46° |
| 2026-05-05 20:18 | 53.69248 | -1.60194 | 4140 ft | 216 kts | 46° |
| 2026-05-05 20:18 | 53.70176 | -1.58244 | 3873 ft | 207 kts | 46° |
| 2026-05-05 20:18 | 53.71045 | -1.56416 | 3675 ft | 193 kts | 46° |
| 2026-05-05 20:19 | 53.71848 | -1.54725 | 3457 ft | 179 kts | 46° |
| 2026-05-05 20:19 | 53.72593 | -1.53157 | 3295 ft | 164 kts | 46° |
| 2026-05-05 20:19 | 53.73311 | -1.51653 | 3186 ft | 162 kts | 46° |
| 2026-05-05 20:19 | 53.74071 | -1.50291 | 3074 ft | 157 kts | 32° |
| 2026-05-05 20:20 | 53.75052 | -1.49580 | 3001 ft | 153 kts | 4° |
| 2026-05-05 20:20 | 53.76083 | -1.49928 | 2997 ft | 153 kts | 330° |
| 2026-05-05 20:20 | 53.76917 | -1.51081 | 3012 ft | 157 kts | 318° |
| 2026-05-05 20:20 | 53.77686 | -1.52365 | 2872 ft | 153 kts | 319° |
| 2026-05-05 20:21 | 53.78424 | -1.53551 | 2684 ft | 140 kts | 320° |
| 2026-05-05 20:21 | 53.79141 | -1.54662 | 2531 ft | 140 kts | 321° |
| 2026-05-05 20:21 | 53.79844 | -1.55735 | 2325 ft | 136 kts | 321° |
| 2026-05-05 20:21 | 53.80561 | -1.56827 | 2141 ft | 138 kts | 321° |
| 2026-05-05 20:22 | 53.81276 | -1.57918 | 1953 ft | 138 kts | 321° |
| 2026-05-05 20:22 | 53.81988 | -1.59007 | 1765 ft | 138 kts | 321° |
| 2026-05-05 20:22 | 53.82721 | -1.60123 | 1674 ft | 144 kts | 321° |
| 2026-05-05 20:22 | 53.83433 | -1.61240 | 1417 ft | 141 kts | 321° |
| 2026-05-05 20:23 | 53.84155 | -1.62353 | 1153 ft | 140 kts | 321° |
| 2026-05-05 20:23 | 53.84871 | -1.63442 | 999 ft | 140 kts | 322° |
| 2026-05-05 20:23 | 53.85605 | -1.64550 | 828 ft | 142 kts | 321° |
| 2026-05-05 20:23 | 53.86336 | -1.65668 | 686 ft | 136 kts | 321° |
| 2026-05-05 20:24 | 53.86871 | -1.66486 | 672 ft | 58 kts | 318° |
| 2026-05-05 20:24 | 53.87081 | -1.66814 | 672 ft | 32 kts | 317° |
| 2026-05-05 20:24 | 53.87222 | -1.67031 | 673 ft | 21 kts | 317° |
| 2026-05-05 20:24 | 53.87308 | -1.67158 | 675 ft | 12 kts | 328° |
| 2026-05-05 20:25 | 53.87373 | -1.67159 | 675 ft | 9 kts | 34° |
| 2026-05-05 20:25 | 53.87400 | -1.67059 | 672 ft | 9 kts | 97° |
| 2026-05-05 20:25 | 53.87353 | -1.66988 | 671 ft | 10 kts | 177° |
| 2026-05-05 20:25 | 53.87270 | -1.66998 | 672 ft | 12 kts | 184° |
| 2026-05-05 20:26 | 53.87191 | -1.66978 | 672 ft | 10 kts | 150° |
| 2026-05-05 20:26 | 53.87133 | -1.66895 | 672 ft | 12 kts | 137° |
| 2026-05-05 20:26 | 53.87061 | -1.66786 | 672 ft | 15 kts | 138° |
| 2026-05-05 20:26 | 53.86977 | -1.66658 | 672 ft | 16 kts | 137° |
| 2026-05-05 20:27 | 53.86963 | -1.66567 | 672 ft | 7 kts | 52° |
| 2026-05-05 20:27 | 53.86993 | -1.66502 | 672 ft | 7 kts | 64° |
| 2026-05-05 20:27 | 53.86984 | -1.66407 | 672 ft | 7 kts | 114° |
| 2026-05-05 20:27 | 53.86966 | -1.66343 | 673 ft | 6 kts | 117° |
| 2026-05-05 20:28 | 53.86925 | -1.66255 | 672 ft | 11 kts | 140° |
| 2026-05-05 20:28 | 53.86861 | -1.66161 | 671 ft | 10 kts | 138° |
| 2026-05-05 20:28 | 53.86819 | -1.66087 | 672 ft | 8 kts | 113° |
| 2026-05-05 20:28 | 53.86814 | -1.65985 | 672 ft | 7 kts | 91° |
| 2026-05-05 20:29 | 53.86813 | -1.65904 | 671 ft | 6 kts | 91° |
| 2026-05-05 20:29 | 53.86811 | -1.65825 | 669 ft | 7 kts | 92° |
| 2026-05-05 20:29 | 53.86825 | -1.65762 | 667 ft | 5 kts | 12° |
| 2026-05-05 20:29 | 53.86853 | -1.65761 | 667 ft | 4 kts | 359° |
| 2026-05-05 20:30 | 53.86874 | -1.65760 | 666 ft | 0 kts | 0° |
| 2026-05-05 20:30 | 53.86877 | -1.65760 | 666 ft | 0 kts | 0° |